sensor_id;sensor_type;location;lat;lon;timestamp;P1;durP1;ratioP1;P2;durP2;ratioP2
69253;SDS011;56364;41.816;12.448;2022-11-20T00:00:10;3.03;;;0.80;;
69253;SDS011;56364;41.816;12.448;2022-11-20T00:02:36;1.63;;;0.70;;
69253;SDS011;56364;41.816;12.448;2022-11-20T00:05:03;4.97;;;1.00;;
69253;SDS011;56364;41.816;12.448;2022-11-20T00:07:29;2.85;;;1.27;;
69253;SDS011;56364;41.816;12.448;2022-11-20T00:09:55;1.55;;;0.65;;
69253;SDS011;56364;41.816;12.448;2022-11-20T00:12:21;4.43;;;0.90;;
69253;SDS011;56364;41.816;12.448;2022-11-20T00:17:13;5.35;;;0.85;;
69253;SDS011;56364;41.816;12.448;2022-11-20T00:19:39;4.75;;;0.98;;
69253;SDS011;56364;41.816;12.448;2022-11-20T00:22:05;5.43;;;1.02;;
69253;SDS011;56364;41.816;12.448;2022-11-20T00:26:57;2.10;;;0.73;;
69253;SDS011;56364;41.816;12.448;2022-11-20T00:31:48;2.22;;;0.85;;
69253;SDS011;56364;41.816;12.448;2022-11-20T00:36:40;7.35;;;0.93;;
69253;SDS011;56364;41.816;12.448;2022-11-20T00:39:06;4.18;;;0.80;;
69253;SDS011;56364;41.816;12.448;2022-11-20T00:41:32;4.22;;;0.80;;
69253;SDS011;56364;41.816;12.448;2022-11-20T00:46:26;3.75;;;0.70;;
69253;SDS011;56364;41.816;12.448;2022-11-20T00:48:52;3.17;;;0.70;;
69253;SDS011;56364;41.816;12.448;2022-11-20T00:53:44;2.50;;;1.08;;
69253;SDS011;56364;41.816;12.448;2022-11-20T00:56:12;2.38;;;0.77;;
69253;SDS011;56364;41.816;12.448;2022-11-20T00:58:39;1.50;;;0.77;;
69253;SDS011;56364;41.816;12.448;2022-11-20T01:03:35;1.20;;;0.55;;
69253;SDS011;56364;41.816;12.448;2022-11-20T01:06:05;3.00;;;0.98;;
69253;SDS011;56364;41.816;12.448;2022-11-20T01:08:32;1.83;;;0.80;;
69253;SDS011;56364;41.816;12.448;2022-11-20T01:11:02;4.32;;;0.80;;
69253;SDS011;56364;41.816;12.448;2022-11-20T01:13:29;2.40;;;0.90;;
69253;SDS011;56364;41.816;12.448;2022-11-20T01:16:03;2.47;;;0.68;;
69253;SDS011;56364;41.816;12.448;2022-11-20T01:18:29;3.10;;;0.80;;
69253;SDS011;56364;41.816;12.448;2022-11-20T01:23:21;2.53;;;0.75;;
69253;SDS011;56364;41.816;12.448;2022-11-20T01:28:12;3.13;;;0.55;;
69253;SDS011;56364;41.816;12.448;2022-11-20T01:33:04;1.73;;;0.52;;
69253;SDS011;56364;41.816;12.448;2022-11-20T01:35:30;1.10;;;0.60;;
69253;SDS011;56364;41.816;12.448;2022-11-20T01:40:22;3.45;;;0.70;;
69253;SDS011;56364;41.816;12.448;2022-11-20T01:48:18;1.38;;;0.60;;
69253;SDS011;56364;41.816;12.448;2022-11-20T01:50:45;2.53;;;0.95;;
69253;SDS011;56364;41.816;12.448;2022-11-20T01:53:12;3.03;;;0.80;;
69253;SDS011;56364;41.816;12.448;2022-11-20T01:55:41;1.73;;;0.95;;
69253;SDS011;56364;41.816;12.448;2022-11-20T01:58:08;2.03;;;0.80;;
69253;SDS011;56364;41.816;12.448;2022-11-20T02:00:34;1.42;;;0.70;;
69253;SDS011;56364;41.816;12.448;2022-11-20T02:03:03;1.40;;;0.80;;
69253;SDS011;56364;41.816;12.448;2022-11-20T02:05:33;4.03;;;1.05;;
69253;SDS011;56364;41.816;12.448;2022-11-20T02:08:01;2.60;;;0.75;;
69253;SDS011;56364;41.816;12.448;2022-11-20T02:10:28;2.55;;;0.90;;
69253;SDS011;56364;41.816;12.448;2022-11-20T02:12:55;1.55;;;0.70;;
69253;SDS011;56364;41.816;12.448;2022-11-20T02:18:06;2.55;;;0.60;;
69253;SDS011;56364;41.816;12.448;2022-11-20T02:20:32;6.05;;;0.75;;
69253;SDS011;56364;41.816;12.448;2022-11-20T02:25:53;1.42;;;0.70;;
69253;SDS011;56364;41.816;12.448;2022-11-20T02:28:20;1.50;;;0.82;;
69253;SDS011;56364;41.816;12.448;2022-11-20T02:30:46;2.70;;;0.80;;
69253;SDS011;56364;41.816;12.448;2022-11-20T02:35:39;1.65;;;0.80;;
69253;SDS011;56364;41.816;12.448;2022-11-20T02:38:06;1.73;;;0.80;;
69253;SDS011;56364;41.816;12.448;2022-11-20T02:40:32;1.45;;;0.77;;
69253;SDS011;56364;41.816;12.448;2022-11-20T02:42:58;2.25;;;1.27;;
69253;SDS011;56364;41.816;12.448;2022-11-20T02:47:50;3.05;;;0.77;;
69253;SDS011;56364;41.816;12.448;2022-11-20T02:50:16;2.22;;;0.77;;
69253;SDS011;56364;41.816;12.448;2022-11-20T02:52:42;3.80;;;0.98;;
69253;SDS011;56364;41.816;12.448;2022-11-20T02:57:35;1.33;;;0.60;;
69253;SDS011;56364;41.816;12.448;2022-11-20T03:00:01;4.20;;;0.90;;
69253;SDS011;56364;41.816;12.448;2022-11-20T03:02:30;2.65;;;0.70;;
69253;SDS011;56364;41.816;12.448;2022-11-20T03:04:57;2.05;;;0.77;;
69253;SDS011;56364;41.816;12.448;2022-11-20T03:09:49;3.63;;;0.90;;
69253;SDS011;56364;41.816;12.448;2022-11-20T03:14:41;2.28;;;0.70;;
69253;SDS011;56364;41.816;12.448;2022-11-20T03:19:32;1.05;;;0.57;;
69253;SDS011;56364;41.816;12.448;2022-11-20T03:21:59;3.03;;;0.85;;
69253;SDS011;56364;41.816;12.448;2022-11-20T03:24:25;4.60;;;0.90;;
69253;SDS011;56364;41.816;12.448;2022-11-20T03:26:51;2.47;;;0.82;;
69253;SDS011;56364;41.816;12.448;2022-11-20T03:29:17;2.40;;;0.82;;
69253;SDS011;56364;41.816;12.448;2022-11-20T03:31:43;2.17;;;0.68;;
69253;SDS011;56364;41.816;12.448;2022-11-20T03:34:10;1.77;;;0.70;;
69253;SDS011;56364;41.816;12.448;2022-11-20T03:36:41;2.00;;;0.60;;
69253;SDS011;56364;41.816;12.448;2022-11-20T03:39:08;0.93;;;0.60;;
69253;SDS011;56364;41.816;12.448;2022-11-20T03:44:00;1.17;;;0.60;;
69253;SDS011;56364;41.816;12.448;2022-11-20T03:46:27;3.83;;;0.77;;
69253;SDS011;56364;41.816;12.448;2022-11-20T03:48:54;1.65;;;0.98;;
69253;SDS011;56364;41.816;12.448;2022-11-20T03:51:21;2.33;;;1.15;;
69253;SDS011;56364;41.816;12.448;2022-11-20T03:53:47;1.25;;;0.80;;
69253;SDS011;56364;41.816;12.448;2022-11-20T03:56:15;2.13;;;0.82;;
69253;SDS011;56364;41.816;12.448;2022-11-20T03:58:41;4.70;;;1.00;;
69253;SDS011;56364;41.816;12.448;2022-11-20T04:01:08;1.33;;;0.68;;
69253;SDS011;56364;41.816;12.448;2022-11-20T04:03:35;2.17;;;1.05;;
69253;SDS011;56364;41.816;12.448;2022-11-20T04:06:05;3.55;;;1.20;;
69253;SDS011;56364;41.816;12.448;2022-11-20T04:08:32;2.85;;;1.40;;
69253;SDS011;56364;41.816;12.448;2022-11-20T04:13:39;3.42;;;1.60;;
69253;SDS011;56364;41.816;12.448;2022-11-20T04:16:06;2.85;;;1.55;;
69253;SDS011;56364;41.816;12.448;2022-11-20T04:18:32;2.67;;;1.52;;
69253;SDS011;56364;41.816;12.448;2022-11-20T04:20:59;3.35;;;1.33;;
69253;SDS011;56364;41.816;12.448;2022-11-20T04:23:25;2.75;;;1.27;;
69253;SDS011;56364;41.816;12.448;2022-11-20T04:25:51;4.45;;;1.45;;
69253;SDS011;56364;41.816;12.448;2022-11-20T04:28:17;5.25;;;1.67;;
69253;SDS011;56364;41.816;12.448;2022-11-20T04:33:09;3.42;;;1.30;;
69253;SDS011;56364;41.816;12.448;2022-11-20T04:38:01;6.57;;;2.15;;
69253;SDS011;56364;41.816;12.448;2022-11-20T04:40:27;3.03;;;1.40;;
69253;SDS011;56364;41.816;12.448;2022-11-20T04:42:53;5.15;;;2.08;;
69253;SDS011;56364;41.816;12.448;2022-11-20T04:45:20;3.08;;;1.42;;
69253;SDS011;56364;41.816;12.448;2022-11-20T04:47:46;3.05;;;1.60;;
69253;SDS011;56364;41.816;12.448;2022-11-20T04:50:12;7.80;;;1.98;;
69253;SDS011;56364;41.816;12.448;2022-11-20T04:55:04;3.25;;;1.40;;
69253;SDS011;56364;41.816;12.448;2022-11-20T04:57:30;2.95;;;1.20;;
69253;SDS011;56364;41.816;12.448;2022-11-20T05:02:22;4.40;;;0.90;;
69253;SDS011;56364;41.816;12.448;2022-11-20T05:04:48;2.45;;;1.20;;
69253;SDS011;56364;41.816;12.448;2022-11-20T05:07:14;2.47;;;1.05;;
69253;SDS011;56364;41.816;12.448;2022-11-20T05:09:40;2.00;;;0.80;;
69253;SDS011;56364;41.816;12.448;2022-11-20T05:12:07;1.27;;;0.82;;
69253;SDS011;56364;41.816;12.448;2022-11-20T05:14:33;2.70;;;0.95;;
69253;SDS011;56364;41.816;12.448;2022-11-20T05:16:59;1.42;;;0.70;;
69253;SDS011;56364;41.816;12.448;2022-11-20T05:21:51;1.40;;;0.80;;
69253;SDS011;56364;41.816;12.448;2022-11-20T05:26:44;2.00;;;0.60;;
69253;SDS011;56364;41.816;12.448;2022-11-20T05:29:10;1.65;;;0.70;;
69253;SDS011;56364;41.816;12.448;2022-11-20T05:31:38;0.88;;;0.50;;
69253;SDS011;56364;41.816;12.448;2022-11-20T05:34:04;4.07;;;0.60;;
69253;SDS011;56364;41.816;12.448;2022-11-20T05:36:30;1.05;;;0.65;;
69253;SDS011;56364;41.816;12.448;2022-11-20T05:38:56;1.33;;;0.65;;
69253;SDS011;56364;41.816;12.448;2022-11-20T05:41:22;0.80;;;0.57;;
69253;SDS011;56364;41.816;12.448;2022-11-20T05:43:48;1.00;;;0.57;;
69253;SDS011;56364;41.816;12.448;2022-11-20T05:46:15;2.75;;;0.70;;
69253;SDS011;56364;41.816;12.448;2022-11-20T05:48:42;1.60;;;0.50;;
69253;SDS011;56364;41.816;12.448;2022-11-20T05:51:10;2.15;;;0.60;;
69253;SDS011;56364;41.816;12.448;2022-11-20T05:53:36;1.98;;;0.55;;
69253;SDS011;56364;41.816;12.448;2022-11-20T05:56:03;0.77;;;0.60;;
69253;SDS011;56364;41.816;12.448;2022-11-20T05:58:30;0.77;;;0.40;;
69253;SDS011;56364;41.816;12.448;2022-11-20T06:01:13;0.68;;;0.60;;
69253;SDS011;56364;41.816;12.448;2022-11-20T06:03:40;1.65;;;0.57;;
69253;SDS011;56364;41.816;12.448;2022-11-20T06:06:08;2.92;;;0.68;;
69253;SDS011;56364;41.816;12.448;2022-11-20T06:08:34;0.30;;;0.30;;
69253;SDS011;56364;41.816;12.448;2022-11-20T06:11:04;0.68;;;0.40;;
69253;SDS011;56364;41.816;12.448;2022-11-20T06:13:31;0.82;;;0.40;;
69253;SDS011;56364;41.816;12.448;2022-11-20T06:15:57;2.58;;;0.50;;
69253;SDS011;56364;41.816;12.448;2022-11-20T06:18:23;1.20;;;0.40;;
69253;SDS011;56364;41.816;12.448;2022-11-20T06:20:58;0.60;;;0.38;;
69253;SDS011;56364;41.816;12.448;2022-11-20T06:23:24;1.38;;;0.30;;
69253;SDS011;56364;41.816;12.448;2022-11-20T06:25:50;1.23;;;0.50;;
69253;SDS011;56364;41.816;12.448;2022-11-20T06:30:45;0.40;;;0.30;;
69253;SDS011;56364;41.816;12.448;2022-11-20T06:33:11;0.77;;;0.20;;
69253;SDS011;56364;41.816;12.448;2022-11-20T06:38:03;0.73;;;0.40;;
69253;SDS011;56364;41.816;12.448;2022-11-20T06:42:55;0.17;;;0.13;;
69253;SDS011;56364;41.816;12.448;2022-11-20T06:47:47;0.55;;;0.30;;
69253;SDS011;56364;41.816;12.448;2022-11-20T06:52:39;0.93;;;0.40;;
69253;SDS011;56364;41.816;12.448;2022-11-20T06:55:05;2.65;;;0.40;;
69253;SDS011;56364;41.816;12.448;2022-11-20T06:57:31;0.40;;;0.40;;
69253;SDS011;56364;41.816;12.448;2022-11-20T06:59:57;0.63;;;0.30;;
69253;SDS011;56364;41.816;12.448;2022-11-20T07:04:49;0.20;;;0.20;;
69253;SDS011;56364;41.816;12.448;2022-11-20T07:09:41;1.20;;;0.20;;
69253;SDS011;56364;41.816;12.448;2022-11-20T07:14:33;1.15;;;0.60;;
69253;SDS011;56364;41.816;12.448;2022-11-20T07:19:25;3.65;;;0.47;;
69253;SDS011;56364;41.816;12.448;2022-11-20T07:21:51;0.50;;;0.30;;
69253;SDS011;56364;41.816;12.448;2022-11-20T07:24:17;0.20;;;0.20;;
69253;SDS011;56364;41.816;12.448;2022-11-20T07:26:45;0.40;;;0.30;;
69253;SDS011;56364;41.816;12.448;2022-11-20T07:29:13;0.45;;;0.40;;
69253;SDS011;56364;41.816;12.448;2022-11-20T07:34:05;0.35;;;0.30;;
69253;SDS011;56364;41.816;12.448;2022-11-20T07:38:56;0.30;;;0.30;;
69253;SDS011;56364;41.816;12.448;2022-11-20T07:41:23;0.63;;;0.32;;
69253;SDS011;56364;41.816;12.448;2022-11-20T07:43:49;0.52;;;0.25;;
69253;SDS011;56364;41.816;12.448;2022-11-20T07:46:15;0.70;;;0.22;;
69253;SDS011;56364;41.816;12.448;2022-11-20T07:48:41;3.47;;;0.35;;
69253;SDS011;56364;41.816;12.448;2022-11-20T07:51:07;2.70;;;0.45;;
69253;SDS011;56364;41.816;12.448;2022-11-20T07:53:33;0.32;;;0.10;;
69253;SDS011;56364;41.816;12.448;2022-11-20T07:56:00;0.98;;;0.25;;
69253;SDS011;56364;41.816;12.448;2022-11-20T07:58:26;2.65;;;0.50;;
69253;SDS011;56364;41.816;12.448;2022-11-20T08:00:52;1.40;;;0.20;;
69253;SDS011;56364;41.816;12.448;2022-11-20T08:03:18;0.10;;;0.10;;
69253;SDS011;56364;41.816;12.448;2022-11-20T08:05:44;1.38;;;0.30;;
69253;SDS011;56364;41.816;12.448;2022-11-20T08:08:10;0.65;;;0.25;;
69253;SDS011;56364;41.816;12.448;2022-11-20T08:10:36;3.13;;;0.40;;
69253;SDS011;56364;41.816;12.448;2022-11-20T08:13:02;0.15;;;0.15;;
69253;SDS011;56364;41.816;12.448;2022-11-20T08:15:48;0.70;;;0.30;;
69253;SDS011;56364;41.816;12.448;2022-11-20T08:18:15;0.68;;;0.15;;
69253;SDS011;56364;41.816;12.448;2022-11-20T08:20:42;3.20;;;0.35;;
69253;SDS011;56364;41.816;12.448;2022-11-20T08:23:08;0.43;;;0.30;;
69253;SDS011;56364;41.816;12.448;2022-11-20T08:25:35;0.25;;;0.22;;
69253;SDS011;56364;41.816;12.448;2022-11-20T08:28:02;0.20;;;0.20;;
69253;SDS011;56364;41.816;12.448;2022-11-20T08:30:28;1.02;;;0.50;;
69253;SDS011;56364;41.816;12.448;2022-11-20T08:32:55;2.20;;;0.32;;
69253;SDS011;56364;41.816;12.448;2022-11-20T08:35:26;5.28;;;0.32;;
69253;SDS011;56364;41.816;12.448;2022-11-20T08:40:18;0.60;;;0.30;;
69253;SDS011;56364;41.816;12.448;2022-11-20T08:45:09;0.40;;;0.30;;
69253;SDS011;56364;41.816;12.448;2022-11-20T08:47:35;1.52;;;0.32;;
69253;SDS011;56364;41.816;12.448;2022-11-20T08:50:01;1.23;;;0.50;;
69253;SDS011;56364;41.816;12.448;2022-11-20T08:52:28;2.63;;;0.40;;
69253;SDS011;56364;41.816;12.448;2022-11-20T08:57:20;0.80;;;0.57;;
69253;SDS011;56364;41.816;12.448;2022-11-20T09:02:12;0.35;;;0.30;;
69253;SDS011;56364;41.816;12.448;2022-11-20T09:07:04;1.77;;;0.50;;
69253;SDS011;56364;41.816;12.448;2022-11-20T09:11:56;0.73;;;0.45;;
69253;SDS011;56364;41.816;12.448;2022-11-20T09:16:53;1.42;;;0.52;;
69253;SDS011;56364;41.816;12.448;2022-11-20T09:21:47;4.00;;;0.47;;
69253;SDS011;56364;41.816;12.448;2022-11-20T09:24:13;13.15;;;0.70;;
69253;SDS011;56364;41.816;12.448;2022-11-20T09:26:39;6.88;;;0.75;;
69253;SDS011;56364;41.816;12.448;2022-11-20T09:29:05;2.15;;;0.52;;
69253;SDS011;56364;41.816;12.448;2022-11-20T09:31:31;1.35;;;0.50;;
69253;SDS011;56364;41.816;12.448;2022-11-20T09:33:57;4.88;;;0.47;;
69253;SDS011;56364;41.816;12.448;2022-11-20T09:36:23;3.00;;;0.40;;
69253;SDS011;56364;41.816;12.448;2022-11-20T09:38:49;0.63;;;0.47;;
69253;SDS011;56364;41.816;12.448;2022-11-20T09:46:14;1.38;;;0.50;;
69253;SDS011;56364;41.816;12.448;2022-11-20T09:51:31;2.10;;;0.40;;
69253;SDS011;56364;41.816;12.448;2022-11-20T09:58:53;0.80;;;0.32;;
69253;SDS011;56364;41.816;12.448;2022-11-20T10:01:26;1.27;;;0.60;;
69253;SDS011;56364;41.816;12.448;2022-11-20T10:03:56;1.15;;;0.50;;
69253;SDS011;56364;41.816;12.448;2022-11-20T10:06:28;1.83;;;0.60;;
69253;SDS011;56364;41.816;12.448;2022-11-20T10:09:06;0.73;;;0.38;;
69253;SDS011;56364;41.816;12.448;2022-11-20T10:14:13;0.47;;;0.30;;
69253;SDS011;56364;41.816;12.448;2022-11-20T10:29:29;0.73;;;0.30;;
69253;SDS011;56364;41.816;12.448;2022-11-20T10:32:07;0.40;;;0.40;;
69253;SDS011;56364;41.816;12.448;2022-11-20T10:34:42;0.73;;;0.50;;
69253;SDS011;56364;41.816;12.448;2022-11-20T10:37:13;0.30;;;0.30;;
69253;SDS011;56364;41.816;12.448;2022-11-20T10:42:38;0.40;;;0.32;;
69253;SDS011;56364;41.816;12.448;2022-11-20T10:45:15;2.08;;;0.50;;
69253;SDS011;56364;41.816;12.448;2022-11-20T10:47:44;1.23;;;0.52;;
69253;SDS011;56364;41.816;12.448;2022-11-20T10:52:52;2.53;;;0.40;;
69253;SDS011;56364;41.816;12.448;2022-11-20T10:55:25;0.63;;;0.35;;
69253;SDS011;56364;41.816;12.448;2022-11-20T11:00:38;2.10;;;0.50;;
69253;SDS011;56364;41.816;12.448;2022-11-20T11:03:20;3.20;;;0.45;;
69253;SDS011;56364;41.816;12.448;2022-11-20T11:10:47;3.90;;;0.60;;
69253;SDS011;56364;41.816;12.448;2022-11-20T11:13:19;2.13;;;0.90;;
69253;SDS011;56364;41.816;12.448;2022-11-20T11:15:46;3.42;;;0.77;;
69253;SDS011;56364;41.816;12.448;2022-11-20T11:20:38;3.35;;;1.10;;
69253;SDS011;56364;41.816;12.448;2022-11-20T11:25:31;2.20;;;0.85;;
69253;SDS011;56364;41.816;12.448;2022-11-20T11:28:03;2.47;;;0.63;;
69253;SDS011;56364;41.816;12.448;2022-11-20T11:30:39;2.55;;;0.63;;
69253;SDS011;56364;41.816;12.448;2022-11-20T11:33:08;4.20;;;0.75;;
69253;SDS011;56364;41.816;12.448;2022-11-20T11:35:42;3.83;;;0.90;;
69253;SDS011;56364;41.816;12.448;2022-11-20T11:38:14;2.55;;;0.70;;
69253;SDS011;56364;41.816;12.448;2022-11-20T11:40:41;3.17;;;0.63;;
69253;SDS011;56364;41.816;12.448;2022-11-20T11:43:16;1.60;;;0.50;;
69253;SDS011;56364;41.816;12.448;2022-11-20T11:46:01;1.02;;;0.43;;
69253;SDS011;56364;41.816;12.448;2022-11-20T11:48:27;1.67;;;0.45;;
69253;SDS011;56364;41.816;12.448;2022-11-20T11:53:20;3.15;;;0.65;;
69253;SDS011;56364;41.816;12.448;2022-11-20T11:55:56;3.58;;;0.85;;
69253;SDS011;56364;41.816;12.448;2022-11-20T12:03:44;0.95;;;0.52;;
69253;SDS011;56364;41.816;12.448;2022-11-20T12:06:16;0.60;;;0.35;;
69253;SDS011;56364;41.816;12.448;2022-11-20T12:11:13;1.98;;;0.95;;
69253;SDS011;56364;41.816;12.448;2022-11-20T12:16:12;0.93;;;0.50;;
69253;SDS011;56364;41.816;12.448;2022-11-20T12:18:38;1.00;;;0.40;;
69253;SDS011;56364;41.816;12.448;2022-11-20T12:23:35;1.20;;;0.50;;
69253;SDS011;56364;41.816;12.448;2022-11-20T12:26:07;0.77;;;0.45;;
69253;SDS011;56364;41.816;12.448;2022-11-20T12:28:55;0.82;;;0.30;;
69253;SDS011;56364;41.816;12.448;2022-11-20T13:07:03;1.88;;;0.52;;
69253;SDS011;56364;41.816;12.448;2022-11-20T13:09:31;0.80;;;0.60;;
69253;SDS011;56364;41.816;12.448;2022-11-20T13:19:16;1.45;;;0.65;;
69253;SDS011;56364;41.816;12.448;2022-11-20T13:21:44;0.65;;;0.50;;
69253;SDS011;56364;41.816;12.448;2022-11-20T13:29:31;0.43;;;0.43;;
69253;SDS011;56364;41.816;12.448;2022-11-20T13:32:04;1.05;;;0.40;;
69253;SDS011;56364;41.816;12.448;2022-11-20T13:34:30;1.08;;;0.50;;
69253;SDS011;56364;41.816;12.448;2022-11-20T13:36:57;1.05;;;0.38;;
69253;SDS011;56364;41.816;12.448;2022-11-20T13:39:43;3.60;;;0.60;;
69253;SDS011;56364;41.816;12.448;2022-11-20T13:44:46;1.45;;;0.63;;
69253;SDS011;56364;41.816;12.448;2022-11-20T13:47:30;1.40;;;0.60;;
69253;SDS011;56364;41.816;12.448;2022-11-20T13:49:57;2.78;;;0.50;;
69253;SDS011;56364;41.816;12.448;2022-11-20T14:02:32;0.75;;;0.30;;
69253;SDS011;56364;41.816;12.448;2022-11-20T14:04:58;1.30;;;0.50;;
69253;SDS011;56364;41.816;12.448;2022-11-20T14:07:26;0.73;;;0.60;;
69253;SDS011;56364;41.816;12.448;2022-11-20T14:09:54;2.40;;;0.68;;
69253;SDS011;56364;41.816;12.448;2022-11-20T14:12:27;1.30;;;0.57;;
69253;SDS011;56364;41.816;12.448;2022-11-20T14:14:53;0.85;;;0.50;;
69253;SDS011;56364;41.816;12.448;2022-11-20T14:19:46;0.43;;;0.43;;
69253;SDS011;56364;41.816;12.448;2022-11-20T14:24:45;1.27;;;0.70;;
69253;SDS011;56364;41.816;12.448;2022-11-20T14:27:13;0.65;;;0.40;;
69253;SDS011;56364;41.816;12.448;2022-11-20T14:29:39;1.10;;;0.60;;
69253;SDS011;56364;41.816;12.448;2022-11-20T14:32:08;2.08;;;0.60;;
69253;SDS011;56364;41.816;12.448;2022-11-20T14:34:36;0.63;;;0.50;;
69253;SDS011;56364;41.816;12.448;2022-11-20T14:37:04;2.58;;;0.55;;
69253;SDS011;56364;41.816;12.448;2022-11-20T14:39:34;0.45;;;0.40;;
69253;SDS011;56364;41.816;12.448;2022-11-20T14:42:00;0.80;;;0.57;;
69253;SDS011;56364;41.816;12.448;2022-11-20T14:44:31;0.82;;;0.60;;
69253;SDS011;56364;41.816;12.448;2022-11-20T14:46:57;1.10;;;0.65;;
69253;SDS011;56364;41.816;12.448;2022-11-20T14:49:24;0.52;;;0.35;;
69253;SDS011;56364;41.816;12.448;2022-11-20T14:52:11;0.80;;;0.60;;
69253;SDS011;56364;41.816;12.448;2022-11-20T14:54:48;2.55;;;0.70;;
69253;SDS011;56364;41.816;12.448;2022-11-20T15:02:52;1.67;;;0.55;;
69253;SDS011;56364;41.816;12.448;2022-11-20T15:06:04;3.25;;;0.88;;
69253;SDS011;56364;41.816;12.448;2022-11-20T15:08:08;2.70;;;0.77;;
69253;SDS011;56364;41.816;12.448;2022-11-20T15:10:35;1.42;;;0.77;;
69253;SDS011;56364;41.816;12.448;2022-11-20T15:13:04;1.52;;;0.70;;
69253;SDS011;56364;41.816;12.448;2022-11-20T15:18:09;1.25;;;0.60;;
69253;SDS011;56364;41.816;12.448;2022-11-20T15:20:36;0.80;;;0.70;;
69253;SDS011;56364;41.816;12.448;2022-11-20T15:23:07;1.20;;;0.77;;
69253;SDS011;56364;41.816;12.448;2022-11-20T15:25:34;1.98;;;0.60;;
69253;SDS011;56364;41.816;12.448;2022-11-20T15:28:00;1.33;;;0.63;;
69253;SDS011;56364;41.816;12.448;2022-11-20T15:30:26;0.70;;;0.70;;
69253;SDS011;56364;41.816;12.448;2022-11-20T15:32:53;0.75;;;0.70;;
69253;SDS011;56364;41.816;12.448;2022-11-20T15:35:19;1.25;;;0.75;;
69253;SDS011;56364;41.816;12.448;2022-11-20T15:37:45;1.15;;;0.60;;
69253;SDS011;56364;41.816;12.448;2022-11-20T15:40:11;1.70;;;0.70;;
69253;SDS011;56364;41.816;12.448;2022-11-20T15:42:37;3.22;;;0.60;;
69253;SDS011;56364;41.816;12.448;2022-11-20T15:45:23;1.30;;;0.50;;
69253;SDS011;56364;41.816;12.448;2022-11-20T15:47:49;1.52;;;0.80;;
69253;SDS011;56364;41.816;12.448;2022-11-20T15:52:41;1.30;;;0.70;;
69253;SDS011;56364;41.816;12.448;2022-11-20T15:55:09;0.70;;;0.60;;
69253;SDS011;56364;41.816;12.448;2022-11-20T15:57:35;1.95;;;1.00;;
69253;SDS011;56364;41.816;12.448;2022-11-20T16:00:02;1.10;;;0.68;;
69253;SDS011;56364;41.816;12.448;2022-11-20T16:02:28;1.30;;;0.80;;
69253;SDS011;56364;41.816;12.448;2022-11-20T16:04:54;1.25;;;0.80;;
69253;SDS011;56364;41.816;12.448;2022-11-20T16:07:20;1.60;;;0.73;;
69253;SDS011;56364;41.816;12.448;2022-11-20T16:09:46;1.10;;;0.82;;
69253;SDS011;56364;41.816;12.448;2022-11-20T16:12:12;3.95;;;0.73;;
69253;SDS011;56364;41.816;12.448;2022-11-20T16:14:58;1.10;;;0.77;;
69253;SDS011;56364;41.816;12.448;2022-11-20T16:17:42;2.67;;;0.80;;
69253;SDS011;56364;41.816;12.448;2022-11-20T16:20:10;1.73;;;0.80;;
69253;SDS011;56364;41.816;12.448;2022-11-20T16:22:36;1.27;;;0.80;;
69253;SDS011;56364;41.816;12.448;2022-11-20T16:27:29;4.43;;;0.82;;
69253;SDS011;56364;41.816;12.448;2022-11-20T16:32:21;1.15;;;0.90;;
69253;SDS011;56364;41.816;12.448;2022-11-20T16:37:12;3.13;;;1.00;;
69253;SDS011;56364;41.816;12.448;2022-11-20T16:39:38;1.77;;;1.20;;
69253;SDS011;56364;41.816;12.448;2022-11-20T16:42:05;1.23;;;0.90;;
69253;SDS011;56364;41.816;12.448;2022-11-20T16:44:31;1.48;;;1.10;;
69253;SDS011;56364;41.816;12.448;2022-11-20T16:46:57;2.03;;;1.08;;
69253;SDS011;56364;41.816;12.448;2022-11-20T16:49:23;1.70;;;0.98;;
69253;SDS011;56364;41.816;12.448;2022-11-20T16:51:50;2.80;;;1.25;;
69253;SDS011;56364;41.816;12.448;2022-11-20T16:54:16;1.58;;;1.17;;
69253;SDS011;56364;41.816;12.448;2022-11-20T16:59:08;1.13;;;0.90;;
69253;SDS011;56364;41.816;12.448;2022-11-20T17:01:34;1.65;;;1.15;;
69253;SDS011;56364;41.816;12.448;2022-11-20T17:04:04;3.03;;;1.10;;
69253;SDS011;56364;41.816;12.448;2022-11-20T17:06:31;1.58;;;1.10;;
69253;SDS011;56364;41.816;12.448;2022-11-20T17:08:58;3.15;;;1.60;;
69253;SDS011;56364;41.816;12.448;2022-11-20T17:11:24;1.70;;;1.05;;
69253;SDS011;56364;41.816;12.448;2022-11-20T17:13:51;2.25;;;1.20;;
69253;SDS011;56364;41.816;12.448;2022-11-20T17:16:18;6.20;;;1.10;;
69253;SDS011;56364;41.816;12.448;2022-11-20T17:18:44;2.20;;;1.40;;
69253;SDS011;56364;41.816;12.448;2022-11-20T17:21:11;3.42;;;1.40;;
69253;SDS011;56364;41.816;12.448;2022-11-20T17:23:38;2.45;;;1.60;;
69253;SDS011;56364;41.816;12.448;2022-11-20T17:26:08;2.30;;;1.20;;
69253;SDS011;56364;41.816;12.448;2022-11-20T17:28:35;2.58;;;1.58;;
69253;SDS011;56364;41.816;12.448;2022-11-20T17:31:02;2.97;;;1.35;;
69253;SDS011;56364;41.816;12.448;2022-11-20T17:33:28;4.63;;;1.17;;
69253;SDS011;56364;41.816;12.448;2022-11-20T17:35:55;2.00;;;1.10;;
69253;SDS011;56364;41.816;12.448;2022-11-20T17:40:47;3.38;;;1.33;;
69253;SDS011;56364;41.816;12.448;2022-11-20T17:43:13;3.17;;;1.23;;
69253;SDS011;56364;41.816;12.448;2022-11-20T17:45:39;1.88;;;1.13;;
69253;SDS011;56364;41.816;12.448;2022-11-20T17:48:05;3.45;;;1.45;;
69253;SDS011;56364;41.816;12.448;2022-11-20T17:50:31;2.17;;;1.40;;
69253;SDS011;56364;41.816;12.448;2022-11-20T17:52:57;2.05;;;1.30;;
69253;SDS011;56364;41.816;12.448;2022-11-20T17:55:23;2.13;;;1.38;;
69253;SDS011;56364;41.816;12.448;2022-11-20T17:57:49;2.78;;;1.27;;
69253;SDS011;56364;41.816;12.448;2022-11-20T18:00:20;2.88;;;1.30;;
69253;SDS011;56364;41.816;12.448;2022-11-20T18:02:47;3.17;;;1.45;;
69253;SDS011;56364;41.816;12.448;2022-11-20T18:05:13;3.90;;;1.50;;
69253;SDS011;56364;41.816;12.448;2022-11-20T18:07:39;2.97;;;1.52;;
69253;SDS011;56364;41.816;12.448;2022-11-20T18:10:05;3.63;;;1.40;;
69253;SDS011;56364;41.816;12.448;2022-11-20T18:12:32;3.63;;;1.50;;
69253;SDS011;56364;41.816;12.448;2022-11-20T18:14:58;2.53;;;1.25;;
69253;SDS011;56364;41.816;12.448;2022-11-20T18:17:24;3.47;;;1.48;;
69253;SDS011;56364;41.816;12.448;2022-11-20T18:19:50;2.45;;;1.40;;
69253;SDS011;56364;41.816;12.448;2022-11-20T18:22:18;3.45;;;1.40;;
69253;SDS011;56364;41.816;12.448;2022-11-20T18:24:44;1.85;;;1.50;;
69253;SDS011;56364;41.816;12.448;2022-11-20T18:27:12;2.40;;;1.30;;
69253;SDS011;56364;41.816;12.448;2022-11-20T18:29:39;4.00;;;1.67;;
69253;SDS011;56364;41.816;12.448;2022-11-20T18:32:05;3.60;;;1.77;;
69253;SDS011;56364;41.816;12.448;2022-11-20T18:34:31;2.97;;;1.40;;
69253;SDS011;56364;41.816;12.448;2022-11-20T18:36:57;3.65;;;1.60;;
69253;SDS011;56364;41.816;12.448;2022-11-20T18:39:23;2.22;;;1.20;;
69253;SDS011;56364;41.816;12.448;2022-11-20T18:41:49;3.15;;;1.30;;
69253;SDS011;56364;41.816;12.448;2022-11-20T18:44:34;1.98;;;1.00;;
69253;SDS011;56364;41.816;12.448;2022-11-20T18:47:19;3.70;;;1.25;;
69253;SDS011;56364;41.816;12.448;2022-11-20T18:49:46;3.22;;;1.10;;
69253;SDS011;56364;41.816;12.448;2022-11-20T18:52:20;2.40;;;1.23;;
69253;SDS011;56364;41.816;12.448;2022-11-20T18:54:46;1.92;;;1.02;;
69253;SDS011;56364;41.816;12.448;2022-11-20T18:57:12;1.65;;;1.10;;
69253;SDS011;56364;41.816;12.448;2022-11-20T18:59:39;2.83;;;1.05;;
69253;SDS011;56364;41.816;12.448;2022-11-20T19:02:12;2.08;;;1.13;;
69253;SDS011;56364;41.816;12.448;2022-11-20T19:04:38;3.80;;;1.00;;